createdAt,value
2022-12-03T00:03:03.666Z,6.25
2022-12-03T00:06:28.002Z,6.40
2022-12-03T00:09:53.737Z,5.22
2022-12-03T00:13:15.972Z,7.20
2022-12-03T00:16:38.273Z,5.40
2022-12-03T00:20:00.551Z,5.75
2022-12-03T00:23:22.744Z,5.47
2022-12-03T00:26:45.020Z,4.88
2022-12-03T00:30:09.479Z,5.93
2022-12-03T00:33:31.821Z,5.55
2022-12-03T00:36:53.949Z,6.47
2022-12-03T00:40:16.217Z,6.13
2022-12-03T00:43:38.510Z,13.00
2022-12-03T00:47:00.783Z,6.22
2022-12-03T00:50:23.098Z,6.05
2022-12-03T00:53:45.356Z,6.10
2022-12-03T00:57:07.537Z,6.53
2022-12-03T01:00:29.781Z,7.05
2022-12-03T01:03:52.115Z,5.25
2022-12-03T01:07:14.520Z,5.65
2022-12-03T01:10:36.780Z,5.32
2022-12-03T01:13:59.241Z,4.88
2022-12-03T01:17:21.435Z,4.57
2022-12-03T01:20:43.735Z,5.75
2022-12-03T01:24:08.586Z,4.68
2022-12-03T01:27:30.854Z,5.38
2022-12-03T01:31:11.529Z,5.20
2022-12-03T01:34:33.929Z,5.72
2022-12-03T01:37:56.117Z,4.60
2022-12-03T01:41:19.293Z,5.00
2022-12-03T01:44:41.726Z,4.68
2022-12-03T01:48:04.076Z,5.07
2022-12-03T01:51:26.335Z,4.05
2022-12-03T01:54:53.677Z,6.15
2022-12-03T01:58:26.154Z,4.50
2022-12-03T02:01:49.873Z,4.75
2022-12-03T02:05:17.968Z,5.95
2022-12-03T02:08:40.890Z,5.05
2022-12-03T02:12:03.295Z,5.20
2022-12-03T02:15:26.035Z,7.55
2022-12-03T02:18:48.516Z,5.50
2022-12-03T02:22:24.289Z,4.00
2022-12-03T02:25:46.530Z,5.03
2022-12-03T02:29:08.797Z,5.68
2022-12-03T02:32:31.019Z,5.13
2022-12-03T02:35:53.309Z,5.32
2022-12-03T02:39:15.501Z,5.72
2022-12-03T02:42:37.843Z,5.57
2022-12-03T02:46:02.495Z,7.80
2022-12-03T02:49:24.722Z,4.45
2022-12-03T02:52:47.659Z,5.63
2022-12-03T02:56:13.828Z,5.22
2022-12-03T02:59:36.582Z,4.50
2022-12-03T03:02:59.256Z,6.00
2022-12-03T03:06:21.904Z,6.05
2022-12-03T03:09:44.188Z,5.40
2022-12-03T03:13:10.726Z,7.68
2022-12-03T03:16:34.498Z,4.03
2022-12-03T03:19:56.972Z,4.45
2022-12-03T03:23:23.893Z,4.50
2022-12-03T03:26:46.473Z,4.18
2022-12-03T03:30:10.392Z,4.13
2022-12-03T03:33:33.578Z,3.70
2022-12-03T03:36:56.022Z,3.90
2022-12-03T03:40:18.331Z,3.60
2022-12-03T03:43:42.155Z,4.78
2022-12-03T03:47:04.392Z,4.53
2022-12-03T03:50:29.733Z,3.42
2022-12-03T03:53:52.958Z,5.80
2022-12-03T03:57:15.775Z,7.05
2022-12-03T04:00:38.195Z,3.53
2022-12-03T04:04:00.476Z,3.45
2022-12-03T04:07:22.725Z,3.50
2022-12-03T04:11:03.836Z,3.78
2022-12-03T04:14:26.309Z,3.67
2022-12-03T04:18:07.234Z,3.63
2022-12-03T04:21:47.868Z,3.00
2022-12-03T04:25:29.325Z,4.00
2022-12-03T04:28:51.704Z,5.53
2022-12-03T04:32:32.347Z,3.80
2022-12-03T04:35:54.678Z,3.80
2022-12-03T04:39:16.919Z,3.00
2022-12-03T04:42:39.027Z,5.35
2022-12-03T04:46:04.404Z,3.58
2022-12-03T04:49:26.983Z,3.42
2022-12-03T04:52:49.161Z,5.63
2022-12-03T04:56:11.268Z,4.10
2022-12-03T04:59:34.328Z,5.03
2022-12-03T05:02:56.759Z,3.92
2022-12-03T05:06:19.074Z,3.33
2022-12-03T05:09:41.345Z,3.75
2022-12-03T05:13:03.624Z,4.00
2022-12-03T05:16:25.825Z,3.30
2022-12-03T05:20:08.895Z,2.80
2022-12-03T05:23:31.121Z,3.60
2022-12-03T05:26:53.301Z,3.15
2022-12-03T05:30:15.763Z,4.68
2022-12-03T05:33:43.726Z,3.72
2022-12-03T05:37:06.568Z,2.80
2022-12-03T05:40:28.804Z,3.70
2022-12-03T05:43:51.192Z,2.72
2022-12-03T05:47:13.438Z,3.67
2022-12-03T05:50:38.030Z,3.55
2022-12-03T05:54:12.442Z,2.83
2022-12-03T05:57:34.643Z,2.65
2022-12-03T06:00:56.983Z,3.45
2022-12-03T06:04:19.294Z,2.45
2022-12-03T06:07:41.858Z,3.00
2022-12-03T06:11:04.318Z,2.60
2022-12-03T06:14:26.830Z,3.00
2022-12-03T06:17:52.464Z,2.85
2022-12-03T06:21:15.023Z,2.63
2022-12-03T06:24:37.233Z,3.00
2022-12-03T06:28:02.205Z,3.22
2022-12-03T06:31:26.816Z,4.65
2022-12-03T06:34:49.124Z,2.38
2022-12-03T06:38:11.319Z,3.88
2022-12-03T06:41:33.526Z,3.72
2022-12-03T06:44:56.155Z,3.63
2022-12-03T06:48:18.687Z,3.38
2022-12-03T06:51:40.856Z,3.38
2022-12-03T06:55:03.129Z,3.47
2022-12-03T06:58:25.259Z,3.88
2022-12-03T07:01:47.657Z,3.60
2022-12-03T07:05:10.558Z,3.42
2022-12-03T07:08:32.789Z,3.17
2022-12-03T07:11:54.956Z,3.58
2022-12-03T07:15:17.273Z,10.45
2022-12-03T07:18:39.567Z,4.28
2022-12-03T07:22:02.588Z,12.63
2022-12-03T07:25:24.884Z,4.32
2022-12-03T07:28:48.292Z,3.53
2022-12-03T07:32:10.546Z,5.95
2022-12-03T07:35:32.827Z,11.32
2022-12-03T07:38:55.045Z,9.07
2022-12-03T07:42:17.353Z,8.57
2022-12-03T07:45:39.698Z,7.88
2022-12-03T07:49:03.382Z,7.18
2022-12-03T07:52:25.566Z,6.97
2022-12-03T07:55:47.822Z,7.65
2022-12-03T07:59:09.928Z,9.25
2022-12-03T08:02:32.146Z,5.15
2022-12-03T08:05:54.346Z,5.53
2022-12-03T08:09:16.776Z,4.28
2022-12-03T08:12:42.173Z,3.78
2022-12-03T08:16:18.220Z,5.40
2022-12-03T08:19:45.489Z,5.68
2022-12-03T08:23:32.011Z,5.07
2022-12-03T08:26:56.779Z,6.72
2022-12-03T08:30:19.517Z,5.57
2022-12-03T08:33:42.527Z,7.68
2022-12-03T08:37:16.341Z,5.38
2022-12-03T08:40:43.780Z,4.38
2022-12-03T08:44:25.963Z,5.65
2022-12-03T08:47:48.206Z,6.28
2022-12-03T08:51:25.335Z,8.48
2022-12-03T08:54:53.699Z,11.80
2022-12-03T08:58:33.394Z,7.57
2022-12-03T09:01:57.690Z,10.85
2022-12-03T09:05:32.468Z,10.68
2022-12-03T09:08:54.792Z,6.28
2022-12-03T09:12:17.009Z,7.72
2022-12-03T09:15:39.255Z,10.75
2022-12-03T09:19:01.642Z,6.65
2022-12-03T09:22:24.268Z,10.75
2022-12-03T09:25:46.552Z,9.13
2022-12-03T09:29:12.148Z,7.95
2022-12-03T09:32:35.040Z,7.97
2022-12-03T09:35:59.113Z,5.10
2022-12-03T09:39:21.315Z,6.32
2022-12-03T09:42:43.612Z,9.75
2022-12-03T09:46:06.064Z,6.30
2022-12-03T09:49:30.445Z,7.78
2022-12-03T09:52:55.176Z,6.13
2022-12-03T09:56:21.995Z,9.57
2022-12-03T09:59:44.215Z,9.32
2022-12-03T10:03:10.100Z,7.72
2022-12-03T10:06:32.281Z,6.43
2022-12-03T10:09:54.745Z,5.35
2022-12-03T10:13:26.221Z,7.50
2022-12-03T10:16:48.975Z,5.57
2022-12-03T10:20:14.212Z,5.53
2022-12-03T10:23:36.423Z,7.38
2022-12-03T10:27:22.330Z,5.72
2022-12-03T10:34:27.021Z,8.02
2022-12-03T10:37:59.524Z,9.93
2022-12-03T10:41:28.288Z,6.53
2022-12-03T10:45:12.489Z,7.60
2022-12-03T10:48:34.788Z,6.13
2022-12-03T10:51:57.261Z,8.40
2022-12-03T10:55:19.471Z,6.25
2022-12-03T10:58:41.934Z,6.47
2022-12-03T11:02:08.024Z,5.25
2022-12-03T11:05:30.327Z,9.30
2022-12-03T11:08:57.835Z,6.68
2022-12-03T11:12:26.237Z,13.73
2022-12-03T11:15:48.937Z,6.50
2022-12-03T11:19:36.592Z,5.97
2022-12-03T11:22:59.944Z,5.65
2022-12-03T11:26:30.964Z,6.95
2022-12-03T11:30:01.129Z,6.50
2022-12-03T11:33:31.912Z,4.43
2022-12-03T11:37:12.276Z,5.22
2022-12-03T11:40:39.343Z,6.57
2022-12-03T11:44:29.608Z,4.40
2022-12-03T11:48:15.799Z,6.43
2022-12-03T11:51:39.151Z,5.47
2022-12-03T11:55:23.409Z,7.80
2022-12-03T11:58:47.521Z,4.28
2022-12-03T12:02:20.639Z,6.18
2022-12-03T12:05:42.897Z,4.90
2022-12-03T12:09:05.020Z,5.20
2022-12-03T12:12:55.128Z,9.02
2022-12-03T12:16:50.679Z,4.00
2022-12-03T12:20:25.775Z,5.28
2022-12-03T12:23:47.956Z,4.10
2022-12-03T12:27:13.989Z,7.30
2022-12-03T12:30:36.247Z,4.05
2022-12-03T12:33:58.499Z,4.60
2022-12-03T12:37:28.192Z,4.03
2022-12-03T12:40:50.985Z,5.45
2022-12-03T12:44:14.276Z,5.43
2022-12-03T12:47:36.668Z,3.20
2022-12-03T12:51:19.154Z,3.50
2022-12-03T12:54:41.770Z,4.70
2022-12-03T12:58:13.860Z,3.95
2022-12-03T13:01:36.613Z,4.40
2022-12-03T13:05:02.344Z,5.47
2022-12-03T13:08:27.297Z,4.15
2022-12-03T13:11:55.985Z,6.13
2022-12-03T13:15:37.205Z,3.97
2022-12-03T13:19:00.980Z,3.90
2022-12-03T13:22:25.594Z,12.18
2022-12-03T13:26:00.601Z,4.55
2022-12-03T13:29:25.743Z,5.25
2022-12-03T13:32:47.941Z,7.97
2022-12-03T13:36:16.277Z,6.47
2022-12-03T13:39:40.743Z,3.92
2022-12-03T13:43:11.090Z,4.57
2022-12-03T13:46:35.960Z,4.18
2022-12-03T13:50:04.867Z,4.35
2022-12-03T13:53:36.895Z,6.00
2022-12-03T13:57:00.237Z,4.05
2022-12-03T14:00:22.665Z,3.72
2022-12-03T14:03:44.912Z,4.70
2022-12-03T14:07:07.156Z,4.78
2022-12-03T14:10:29.925Z,7.93
2022-12-03T14:13:52.127Z,4.05
2022-12-03T14:17:14.426Z,3.20
2022-12-03T14:20:37.943Z,4.05
2022-12-03T14:24:00.180Z,7.07
2022-12-03T14:27:24.745Z,5.25
2022-12-03T14:30:46.957Z,4.22
2022-12-03T14:34:09.221Z,3.88
2022-12-03T14:37:31.404Z,4.13
2022-12-03T14:40:53.673Z,4.35
2022-12-03T14:44:16.038Z,6.15
2022-12-03T14:47:38.436Z,4.15
2022-12-03T14:51:00.610Z,6.05
2022-12-03T14:54:39.151Z,8.55
2022-12-03T14:58:01.494Z,4.10
2022-12-03T15:01:23.912Z,4.22
2022-12-03T15:04:46.173Z,4.03
2022-12-03T15:08:09.629Z,5.43
2022-12-03T15:11:32.227Z,8.40
2022-12-03T15:14:54.633Z,4.75
2022-12-03T15:18:16.892Z,4.30
2022-12-03T15:21:39.113Z,4.47
2022-12-03T15:25:02.680Z,4.80
2022-12-03T15:28:24.860Z,4.53
2022-12-03T15:31:47.371Z,4.15
2022-12-03T15:35:09.751Z,5.38
2022-12-03T15:38:31.936Z,4.35
2022-12-03T15:41:54.947Z,4.25
2022-12-03T15:45:17.636Z,8.80
2022-12-03T15:48:39.947Z,4.95
2022-12-03T15:52:02.339Z,9.07
2022-12-03T15:55:24.607Z,4.15
2022-12-03T15:58:46.920Z,3.65
2022-12-03T16:02:09.413Z,9.70
2022-12-03T16:05:31.731Z,5.63
2022-12-03T16:08:54.033Z,4.15
2022-12-03T16:12:17.582Z,4.03
2022-12-03T16:15:40.007Z,3.92
2022-12-03T16:19:02.228Z,4.28
2022-12-03T16:22:24.460Z,5.80
2022-12-03T16:25:46.743Z,5.20
2022-12-03T16:29:08.958Z,6.28
2022-12-03T16:32:31.257Z,3.70
2022-12-03T16:35:53.377Z,4.10
2022-12-03T16:39:16.548Z,3.92
2022-12-03T16:42:39.666Z,3.75
2022-12-03T16:46:03.053Z,11.68
2022-12-03T16:49:25.603Z,3.90
2022-12-03T16:52:47.890Z,4.57
2022-12-03T16:56:10.127Z,4.32
2022-12-03T16:59:32.325Z,3.70
2022-12-03T17:02:54.780Z,4.47
2022-12-03T17:06:17.126Z,4.30
2022-12-03T17:09:39.432Z,12.98
2022-12-03T17:13:09.412Z,7.13
2022-12-03T17:16:32.179Z,4.18
2022-12-03T17:19:54.785Z,3.92
2022-12-03T17:23:17.781Z,4.00
2022-12-03T17:26:41.928Z,4.13
2022-12-03T17:30:06.408Z,5.30
2022-12-03T17:33:28.698Z,8.90
2022-12-03T17:36:50.901Z,4.43
2022-12-03T17:40:15.230Z,5.63
2022-12-03T17:43:37.675Z,17.53
2022-12-03T17:46:59.987Z,91.32
2022-12-03T17:50:22.372Z,137.93
2022-12-03T17:53:44.696Z,251.65
2022-12-03T17:57:06.899Z,241.77
2022-12-03T18:00:29.435Z,197.82
2022-12-03T18:03:51.774Z,177.25
2022-12-03T18:07:14.259Z,164.27
2022-12-03T18:10:36.470Z,162.52
2022-12-03T18:13:58.763Z,144.30
2022-12-03T18:17:20.963Z,144.25
2022-12-03T18:20:43.219Z,130.85
2022-12-03T18:24:05.711Z,135.18
2022-12-03T18:27:27.939Z,121.43
2022-12-03T18:30:52.802Z,125.90
2022-12-03T18:34:15.320Z,118.93
2022-12-03T18:37:37.753Z,72.75
2022-12-03T18:41:00.143Z,69.68
2022-12-03T18:44:22.404Z,101.28
2022-12-03T18:47:45.034Z,79.97
2022-12-03T18:51:14.577Z,88.20
2022-12-03T18:54:36.926Z,82.10
2022-12-03T18:57:59.144Z,81.38
2022-12-03T19:01:22.859Z,83.00
2022-12-03T19:04:45.575Z,75.65
2022-12-03T19:08:14.255Z,75.50
2022-12-03T19:11:36.632Z,73.80
2022-12-03T19:14:58.932Z,67.00
2022-12-03T19:18:24.920Z,61.13
2022-12-03T19:21:47.222Z,57.83
2022-12-03T19:25:09.504Z,59.83
2022-12-03T19:28:31.811Z,54.97
2022-12-03T19:31:54.094Z,56.25
2022-12-03T19:35:16.430Z,50.28
2022-12-03T19:38:39.568Z,55.58
2022-12-03T19:42:01.832Z,51.63
2022-12-03T19:45:24.002Z,51.58
2022-12-03T19:48:46.699Z,44.67
2022-12-03T19:52:08.960Z,43.03
2022-12-03T19:55:35.276Z,42.00
2022-12-03T19:58:58.024Z,42.13
2022-12-03T20:02:20.337Z,47.50
2022-12-03T20:05:42.668Z,43.90
2022-12-03T20:09:13.393Z,37.90
2022-12-03T20:12:35.575Z,37.92
2022-12-03T20:16:01.938Z,31.58
2022-12-03T20:19:24.234Z,32.35
2022-12-03T20:22:46.468Z,31.90
2022-12-03T20:26:10.745Z,25.88
2022-12-03T20:29:33.210Z,26.30
2022-12-03T20:32:55.396Z,30.02
2022-12-03T20:36:20.771Z,26.98
2022-12-03T20:39:42.981Z,23.80
2022-12-03T20:43:05.123Z,25.30
2022-12-03T20:46:29.706Z,24.05
2022-12-03T20:49:52.285Z,23.02
2022-12-03T20:53:24.913Z,22.77
2022-12-03T20:56:48.035Z,22.63
2022-12-03T21:00:10.601Z,23.40
2022-12-03T21:03:32.877Z,22.88
2022-12-03T21:06:55.135Z,23.35
2022-12-03T21:10:37.677Z,21.60
2022-12-03T21:14:00.159Z,16.65
2022-12-03T21:17:23.200Z,17.90
2022-12-03T21:20:47.361Z,18.55
2022-12-03T21:24:11.339Z,18.60
2022-12-03T21:27:33.624Z,19.30
2022-12-03T21:31:01.364Z,23.08
2022-12-03T21:34:23.716Z,17.00
2022-12-03T21:37:46.238Z,21.92
2022-12-03T21:41:09.844Z,15.15
2022-12-03T21:44:32.102Z,17.65
2022-12-03T21:47:54.427Z,15.20
2022-12-03T21:51:17.984Z,16.77
2022-12-03T21:54:40.134Z,12.07
2022-12-03T21:58:02.314Z,13.48
2022-12-03T22:01:25.272Z,14.75
2022-12-03T22:04:50.845Z,13.00
2022-12-03T22:08:13.852Z,13.18
2022-12-03T22:11:36.284Z,12.52
2022-12-03T22:14:58.495Z,11.02
2022-12-03T22:18:20.659Z,12.70
2022-12-03T22:21:43.133Z,9.52
2022-12-03T22:25:05.546Z,11.10
2022-12-03T22:28:28.310Z,12.63
2022-12-03T22:31:50.695Z,12.75
2022-12-03T22:35:12.903Z,10.57
2022-12-03T22:38:35.104Z,10.13
2022-12-03T22:41:57.216Z,12.85
2022-12-03T22:45:19.394Z,11.20
2022-12-03T22:48:43.268Z,10.02
2022-12-03T22:52:05.557Z,8.95
2022-12-03T22:55:27.716Z,9.30
2022-12-03T22:58:50.220Z,11.23
2022-12-03T23:02:12.422Z,9.32
2022-12-03T23:05:36.981Z,8.82
2022-12-03T23:08:59.631Z,9.90
2022-12-03T23:12:21.846Z,8.35
2022-12-03T23:15:50.110Z,7.43
2022-12-03T23:19:12.584Z,7.90
2022-12-03T23:22:34.803Z,7.70
2022-12-03T23:25:57.813Z,7.70
2022-12-03T23:29:20.024Z,7.82
2022-12-03T23:32:44.311Z,7.30
2022-12-03T23:36:07.208Z,8.07
2022-12-03T23:39:29.420Z,9.00
2022-12-03T23:42:51.599Z,7.38
2022-12-03T23:46:16.357Z,7.05
2022-12-03T23:49:38.584Z,6.63
2022-12-03T23:53:00.849Z,7.07
2022-12-03T23:56:29.033Z,6.13
2022-12-03T23:59:51.262Z,10.77
